createdAt,value
2019-02-20T00:00:10.334Z,6.25
2019-02-20T00:00:45.464Z,6.25
2019-02-20T00:01:21.338Z,6.31
2019-02-20T00:01:54.480Z,6.25
2019-02-20T00:02:27.421Z,6.25
2019-02-20T00:03:00.506Z,6.25
2019-02-20T00:03:33.669Z,6.31
2019-02-20T00:04:06.887Z,6.31
2019-02-20T00:04:39.947Z,6.31
2019-02-20T00:05:12.966Z,6.31
2019-02-20T00:05:46.038Z,6.31
2019-02-20T00:06:19.105Z,6.25
2019-02-20T00:06:52.149Z,6.25
2019-02-20T00:07:25.213Z,6.25
2019-02-20T00:07:58.173Z,6.25
2019-02-20T00:08:31.217Z,6.25
2019-02-20T00:09:05.483Z,6.25
2019-02-20T00:09:42.113Z,6.19
2019-02-20T00:10:15.180Z,6.19
2019-02-20T00:10:48.872Z,6.19
2019-02-20T00:11:23.048Z,6.19
2019-02-20T00:11:56.091Z,6.19
2019-02-20T00:12:29.776Z,6.19
2019-02-20T00:13:02.837Z,6.12
2019-02-20T00:13:35.732Z,6.12
2019-02-20T00:14:08.817Z,6.19
2019-02-20T00:14:43.516Z,6.19
2019-02-20T00:15:16.705Z,6.19
2019-02-20T00:15:49.876Z,6.19
2019-02-20T00:16:22.932Z,6.19
2019-02-20T00:16:56.012Z,6.19
2019-02-20T00:17:29.105Z,6.12
2019-02-20T00:18:02.074Z,6.12
2019-02-20T00:18:35.228Z,6.12
2019-02-20T00:19:08.427Z,6.12
2019-02-20T00:19:41.366Z,6.12
2019-02-20T00:20:14.289Z,6.12
2019-02-20T00:20:47.334Z,6.12
2019-02-20T00:21:20.302Z,6.12
2019-02-20T00:21:53.347Z,6.12
2019-02-20T00:22:26.412Z,6.06
2019-02-20T00:22:59.438Z,6.06
2019-02-20T00:23:32.410Z,6.06
2019-02-20T00:24:07.119Z,6.06
2019-02-20T00:24:40.005Z,6.06
2019-02-20T00:25:12.866Z,6.00
2019-02-20T00:25:45.840Z,6.00
2019-02-20T00:26:19.112Z,6.00
2019-02-20T00:26:52.270Z,6.00
2019-02-20T00:27:25.092Z,6.00
2019-02-20T00:27:58.045Z,6.00
2019-02-20T00:28:30.968Z,6.00
2019-02-20T00:29:05.520Z,6.06
2019-02-20T00:29:39.026Z,6.06
2019-02-20T00:30:12.076Z,6.06
2019-02-20T00:30:46.338Z,6.00
2019-02-20T00:31:19.386Z,6.00
2019-02-20T00:31:52.230Z,6.00
2019-02-20T00:32:25.123Z,6.06
2019-02-20T00:32:58.147Z,6.06
2019-02-20T00:33:31.139Z,6.06
2019-02-20T00:34:04.282Z,6.06
2019-02-20T00:34:37.070Z,6.06
2019-02-20T00:35:10.287Z,6.06
2019-02-20T00:35:43.194Z,6.06
2019-02-20T00:36:17.106Z,6.06
2019-02-20T00:36:50.102Z,6.06
2019-02-20T00:37:23.135Z,6.06
2019-02-20T00:37:56.041Z,6.06
2019-02-20T00:38:29.059Z,6.06
2019-02-20T00:39:03.884Z,6.06
2019-02-20T00:39:38.827Z,6.06
2019-02-20T00:40:12.356Z,6.06
2019-02-20T00:40:45.288Z,6.06
2019-02-20T00:41:19.220Z,6.06
2019-02-20T00:41:52.148Z,6.06
2019-02-20T00:42:26.054Z,6.06
2019-02-20T00:42:59.103Z,6.06
2019-02-20T00:43:31.895Z,6.06
2019-02-20T00:44:23.070Z,6.12
2019-02-20T00:45:33.850Z,6.06
2019-02-20T00:46:21.336Z,6.12
2019-02-20T00:47:19.722Z,6.12
2019-02-20T00:48:15.452Z,6.12
2019-02-20T00:48:55.962Z,6.12
2019-02-20T00:49:33.826Z,6.12
2019-02-20T00:50:06.752Z,6.12
2019-02-20T00:50:40.041Z,6.12
2019-02-20T00:51:39.040Z,6.12
2019-02-20T00:52:49.971Z,6.12
2019-02-20T00:53:23.102Z,6.12
2019-02-20T00:53:59.352Z,6.12
2019-02-20T00:54:32.432Z,6.12
2019-02-20T00:55:07.080Z,6.12
2019-02-20T00:55:39.984Z,6.12
2019-02-20T00:56:12.972Z,6.12
2019-02-20T00:56:45.970Z,6.12
2019-02-20T00:57:18.982Z,6.06
2019-02-20T00:57:52.071Z,6.06
2019-02-20T00:58:24.916Z,6.06
2019-02-20T00:58:57.992Z,6.06
2019-02-20T00:59:31.122Z,6.06
2019-02-20T01:00:04.978Z,6.06
2019-02-20T01:00:38.059Z,6.06
2019-02-20T01:01:11.151Z,6.06
2019-02-20T01:01:45.324Z,6.06
2019-02-20T01:02:18.308Z,6.06
2019-02-20T01:02:51.239Z,6.06
2019-02-20T01:03:24.348Z,6.06
2019-02-20T01:03:57.223Z,6.00
2019-02-20T01:04:30.075Z,6.06
2019-02-20T01:05:03.437Z,6.06
2019-02-20T01:05:36.526Z,6.00
2019-02-20T01:06:09.565Z,6.00
2019-02-20T01:06:45.203Z,6.00
2019-02-20T01:07:17.309Z,6.00
2019-02-20T01:07:50.084Z,6.00
2019-02-20T01:08:22.931Z,6.00
2019-02-20T01:08:55.829Z,6.00
2019-02-20T01:09:28.843Z,6.00
2019-02-20T01:10:01.847Z,6.00
2019-02-20T01:10:34.895Z,6.06
2019-02-20T01:11:08.074Z,6.00
2019-02-20T01:11:40.898Z,6.00
2019-02-20T01:12:13.914Z,6.00
2019-02-20T01:12:46.850Z,6.00
2019-02-20T01:13:19.976Z,6.00
2019-02-20T01:13:52.819Z,6.00
2019-02-20T01:14:25.745Z,6.00
2019-02-20T01:15:00.163Z,6.06
2019-02-20T01:15:33.348Z,6.00
2019-02-20T01:16:06.350Z,6.00
2019-02-20T01:16:39.393Z,6.00
2019-02-20T01:17:12.523Z,6.06
2019-02-20T01:17:45.482Z,6.06
2019-02-20T01:18:18.472Z,6.00
2019-02-20T01:18:51.630Z,6.00
2019-02-20T01:19:24.606Z,6.00
2019-02-20T01:19:57.566Z,6.00
2019-02-20T01:20:30.726Z,6.00
2019-02-20T01:21:03.899Z,6.00
2019-02-20T01:21:36.882Z,6.00
2019-02-20T01:22:09.948Z,6.00
2019-02-20T01:22:42.808Z,6.00
2019-02-20T01:23:15.769Z,6.00
2019-02-20T01:23:49.933Z,6.00
2019-02-20T01:24:22.882Z,6.00
2019-02-20T01:24:55.932Z,6.00
2019-02-20T01:25:29.002Z,6.00
2019-02-20T01:26:02.086Z,6.00
2019-02-20T01:26:35.137Z,6.00
2019-02-20T01:27:08.160Z,6.00
2019-02-20T01:27:41.212Z,6.00
2019-02-20T01:28:14.328Z,6.00
2019-02-20T01:28:48.291Z,6.00
2019-02-20T01:29:21.218Z,6.00
2019-02-20T01:29:54.148Z,6.00
2019-02-20T01:30:27.144Z,6.00
2019-02-20T01:31:00.117Z,6.00
2019-02-20T01:31:33.093Z,6.00
2019-02-20T01:32:07.785Z,6.00
2019-02-20T01:32:40.868Z,6.00
2019-02-20T01:33:13.941Z,6.00
2019-02-20T01:33:46.937Z,6.00
2019-02-20T01:34:19.994Z,6.00
2019-02-20T01:34:52.932Z,6.00
2019-02-20T01:35:26.450Z,6.00
2019-02-20T01:35:59.568Z,6.00
2019-02-20T01:36:32.644Z,6.00
2019-02-20T01:37:05.675Z,6.00
2019-02-20T01:37:38.638Z,6.00
2019-02-20T01:38:11.578Z,6.00
2019-02-20T01:38:44.543Z,6.00
2019-02-20T01:39:17.555Z,6.00
2019-02-20T01:39:50.407Z,6.00
2019-02-20T01:40:23.510Z,6.00
2019-02-20T01:40:56.598Z,6.00
2019-02-20T01:41:29.677Z,6.00
2019-02-20T01:42:02.876Z,6.00
2019-02-20T01:42:35.886Z,6.00
2019-02-20T01:43:08.978Z,6.00
2019-02-20T01:43:41.875Z,6.00
2019-02-20T01:44:14.835Z,6.00
2019-02-20T01:44:47.830Z,6.00
2019-02-20T01:45:20.866Z,6.00
2019-02-20T01:45:53.903Z,6.00
2019-02-20T01:46:26.957Z,6.00
2019-02-20T01:46:59.955Z,6.00
2019-02-20T01:47:32.891Z,6.00
2019-02-20T01:48:05.871Z,6.00
2019-02-20T01:48:38.911Z,6.00
2019-02-20T01:49:13.401Z,6.00
2019-02-20T01:49:46.239Z,6.00
2019-02-20T01:50:19.223Z,6.00
2019-02-20T01:50:53.235Z,6.00
2019-02-20T01:51:26.236Z,6.00
2019-02-20T01:51:59.263Z,6.00
2019-02-20T01:52:32.067Z,6.00
2019-02-20T01:53:10.213Z,6.00
2019-02-20T01:53:39.910Z,6.00
2019-02-20T01:54:13.872Z,6.00
2019-02-20T01:54:46.763Z,5.94
2019-02-20T01:55:19.709Z,5.94
2019-02-20T01:55:52.596Z,6.00
2019-02-20T01:56:25.542Z,5.94
2019-02-20T01:56:58.651Z,5.94
2019-02-20T01:57:31.594Z,5.94
2019-02-20T01:58:04.632Z,5.94
2019-02-20T01:58:37.491Z,5.94
2019-02-20T01:59:10.524Z,5.94
2019-02-20T01:59:43.635Z,5.94
2019-02-20T02:00:16.621Z,5.94
2019-02-20T02:00:49.453Z,5.87
2019-02-20T02:01:22.343Z,5.94
2019-02-20T02:01:55.468Z,5.87
2019-02-20T02:02:28.461Z,5.94
2019-02-20T02:03:01.397Z,5.94
2019-02-20T02:03:34.293Z,5.94
2019-02-20T02:04:07.448Z,5.87
2019-02-20T02:04:40.272Z,5.87
2019-02-20T02:05:15.694Z,5.87
2019-02-20T02:05:48.126Z,5.87
2019-02-20T02:06:21.041Z,5.87
2019-02-20T02:06:55.402Z,5.87
2019-02-20T02:07:28.377Z,5.87
2019-02-20T02:08:01.395Z,5.81
2019-02-20T02:08:34.449Z,5.81
2019-02-20T02:09:07.495Z,5.81
2019-02-20T02:09:41.231Z,5.81
2019-02-20T02:10:14.141Z,5.81
2019-02-20T02:10:47.053Z,5.81
2019-02-20T02:11:20.051Z,5.81
2019-02-20T02:11:53.003Z,5.81
2019-02-20T02:12:25.873Z,5.81
2019-02-20T02:12:58.793Z,5.81
2019-02-20T02:13:31.763Z,5.81
2019-02-20T02:14:04.857Z,5.81
2019-02-20T02:14:37.744Z,5.81
2019-02-20T02:15:20.077Z,5.81
2019-02-20T02:15:45.779Z,5.81
2019-02-20T02:16:18.768Z,5.81
2019-02-20T02:16:52.755Z,5.81
2019-02-20T02:17:26.775Z,5.81
2019-02-20T02:17:59.703Z,5.81
2019-02-20T02:18:32.625Z,5.87
2019-02-20T02:19:05.689Z,5.87
2019-02-20T02:19:38.742Z,5.87
2019-02-20T02:20:11.746Z,5.87
2019-02-20T02:20:45.899Z,5.87
2019-02-20T02:21:18.934Z,5.87
2019-02-20T02:21:52.013Z,5.94
2019-02-20T02:22:25.097Z,5.94
2019-02-20T02:22:58.042Z,5.94
2019-02-20T02:23:31.098Z,5.94
2019-02-20T02:24:04.263Z,5.94
2019-02-20T02:24:37.368Z,5.94
2019-02-20T02:25:10.391Z,5.94
2019-02-20T02:25:44.977Z,6.00
2019-02-20T02:26:17.941Z,6.00
2019-02-20T02:26:51.155Z,6.00
2019-02-20T02:27:24.081Z,6.00
2019-02-20T02:27:56.918Z,6.00
2019-02-20T02:28:30.411Z,6.00
2019-02-20T02:29:03.427Z,6.00
2019-02-20T02:29:36.214Z,6.00
2019-02-20T02:30:10.682Z,6.00
2019-02-20T02:30:43.636Z,6.06
2019-02-20T02:31:16.678Z,6.06
2019-02-20T02:31:50.778Z,6.06
2019-02-20T02:32:23.681Z,6.06
2019-02-20T02:32:57.384Z,6.06
2019-02-20T02:33:30.359Z,6.06
2019-02-20T02:34:03.356Z,6.06
2019-02-20T02:34:36.282Z,6.00
2019-02-20T02:35:09.365Z,6.00
2019-02-20T02:35:42.387Z,6.00
2019-02-20T02:36:15.299Z,6.00
2019-02-20T02:36:48.319Z,6.00
2019-02-20T02:37:21.263Z,6.06
2019-02-20T02:37:54.310Z,6.00
2019-02-20T02:38:27.211Z,6.00
2019-02-20T02:39:00.140Z,6.00
2019-02-20T02:39:33.058Z,6.00
2019-02-20T02:40:06.289Z,6.00
2019-02-20T02:40:39.379Z,6.00
2019-02-20T02:41:12.188Z,6.00
2019-02-20T02:41:46.784Z,6.00
2019-02-20T02:42:19.920Z,6.00
2019-02-20T02:42:52.847Z,6.00
2019-02-20T02:43:25.872Z,6.00
2019-02-20T02:43:58.992Z,6.00
2019-02-20T02:44:32.033Z,6.00
2019-02-20T02:45:05.576Z,6.00
2019-02-20T02:45:38.635Z,6.00
2019-02-20T02:46:11.839Z,6.00
2019-02-20T02:46:44.861Z,6.00
2019-02-20T02:47:18.983Z,6.00
2019-02-20T02:47:52.141Z,5.94
2019-02-20T02:48:25.207Z,5.94
2019-02-20T02:48:58.572Z,5.94
2019-02-20T02:49:33.224Z,5.94
2019-02-20T02:50:06.693Z,5.94
2019-02-20T02:50:39.699Z,5.94
2019-02-20T02:51:12.629Z,5.94
2019-02-20T02:51:45.679Z,5.94
2019-02-20T02:52:18.569Z,5.94
2019-02-20T02:52:51.544Z,5.94
2019-02-20T02:53:30.633Z,5.94
2019-02-20T02:54:00.527Z,5.94
2019-02-20T02:54:33.442Z,5.94
2019-02-20T02:55:06.713Z,5.94
2019-02-20T02:55:40.197Z,5.94
2019-02-20T02:56:14.119Z,5.94
2019-02-20T02:56:47.189Z,6.00
2019-02-20T02:57:20.115Z,6.00
2019-02-20T02:57:53.147Z,6.00
2019-02-20T02:58:26.476Z,6.06
2019-02-20T02:58:59.387Z,6.00
2019-02-20T02:59:32.436Z,6.00
2019-02-20T03:00:07.309Z,6.06
2019-02-20T03:00:42.063Z,6.06
2019-02-20T03:01:14.931Z,6.06
2019-02-20T03:01:47.957Z,6.06
2019-02-20T03:02:20.902Z,6.06
2019-02-20T03:02:53.965Z,6.06
2019-02-20T03:03:27.056Z,6.06
2019-02-20T03:04:00.113Z,6.06
2019-02-20T03:04:33.089Z,6.06
2019-02-20T03:05:06.540Z,6.06
2019-02-20T03:05:41.145Z,6.06
2019-02-20T03:06:14.057Z,6.06
2019-02-20T03:06:47.002Z,6.06
2019-02-20T03:07:19.901Z,6.00
2019-02-20T03:07:52.911Z,6.06
2019-02-20T03:08:25.808Z,6.06
2019-02-20T03:08:58.878Z,6.06
2019-02-20T03:09:31.771Z,6.06
2019-02-20T03:10:05.022Z,6.06
2019-02-20T03:10:38.058Z,6.06
2019-02-20T03:11:11.043Z,6.06
2019-02-20T03:11:44.055Z,6.06
2019-02-20T03:12:17.214Z,6.06
2019-02-20T03:12:49.999Z,6.00
2019-02-20T03:13:23.026Z,6.00
2019-02-20T03:13:55.915Z,6.00
2019-02-20T03:14:28.986Z,6.00
2019-02-20T03:15:02.005Z,6.00
2019-02-20T03:15:35.278Z,6.00
2019-02-20T03:16:08.282Z,6.06
2019-02-20T03:16:42.219Z,6.06
2019-02-20T03:17:15.122Z,6.06
2019-02-20T03:17:49.649Z,6.06
2019-02-20T03:18:22.554Z,6.06
2019-02-20T03:18:55.472Z,6.06
2019-02-20T03:19:28.378Z,6.06
2019-02-20T03:20:01.578Z,6.06
2019-02-20T03:20:34.564Z,6.06
2019-02-20T03:21:07.597Z,6.06
2019-02-20T03:21:40.608Z,6.06
2019-02-20T03:22:13.580Z,6.00
2019-02-20T03:22:46.551Z,6.00
2019-02-20T03:23:20.832Z,6.00
2019-02-20T03:23:53.631Z,6.00
2019-02-20T03:24:26.563Z,6.00
2019-02-20T03:24:59.374Z,6.00
2019-02-20T03:25:32.196Z,6.00
2019-02-20T03:26:05.197Z,5.94
2019-02-20T03:26:38.084Z,5.94
2019-02-20T03:27:10.919Z,5.94
2019-02-20T03:27:43.785Z,5.94
2019-02-20T03:28:16.578Z,5.94
2019-02-20T03:28:49.427Z,5.94
2019-02-20T03:29:22.220Z,5.87
2019-02-20T03:29:55.014Z,5.87
2019-02-20T03:30:27.998Z,5.87
2019-02-20T03:31:00.933Z,5.87
2019-02-20T03:31:33.891Z,5.87
2019-02-20T03:32:07.805Z,5.87
2019-02-20T03:32:40.629Z,5.87
2019-02-20T03:33:13.471Z,5.81
2019-02-20T03:33:46.432Z,5.81
2019-02-20T03:34:19.224Z,5.81
2019-02-20T03:34:52.255Z,5.81
2019-02-20T03:35:25.148Z,5.81
2019-02-20T03:35:58.274Z,5.81
2019-02-20T03:36:31.198Z,5.81
2019-02-20T03:37:04.756Z,5.75
2019-02-20T03:37:37.662Z,5.81
2019-02-20T03:38:10.693Z,5.75
2019-02-20T03:38:43.723Z,5.75
2019-02-20T03:39:16.773Z,5.75
2019-02-20T03:39:49.596Z,5.75
2019-02-20T03:40:22.500Z,5.75
2019-02-20T03:40:55.483Z,5.75
2019-02-20T03:41:28.852Z,5.69
2019-02-20T03:42:01.852Z,5.69
2019-02-20T03:42:34.899Z,5.69
2019-02-20T03:43:07.994Z,5.69
2019-02-20T03:43:40.943Z,5.69
2019-02-20T03:44:13.914Z,5.69
2019-02-20T03:44:46.858Z,5.69
2019-02-20T03:45:19.855Z,5.62
2019-02-20T03:45:52.796Z,5.62
2019-02-20T03:46:25.718Z,5.62
2019-02-20T03:46:58.627Z,5.62
2019-02-20T03:47:31.623Z,5.62
2019-02-20T03:48:04.574Z,5.62
2019-02-20T03:48:37.520Z,5.62
2019-02-20T03:49:10.570Z,5.62
2019-02-20T03:49:43.474Z,5.62
2019-02-20T03:50:16.421Z,5.56
2019-02-20T03:50:49.324Z,5.62
2019-02-20T03:51:22.340Z,5.56
2019-02-20T03:51:55.216Z,5.56
2019-02-20T03:52:28.152Z,5.56
2019-02-20T03:53:01.238Z,5.56
2019-02-20T03:53:34.172Z,5.56
2019-02-20T03:54:07.194Z,5.56
2019-02-20T03:54:40.225Z,5.56
2019-02-20T03:55:13.232Z,5.56
2019-02-20T03:55:46.236Z,5.56
2019-02-20T03:56:19.226Z,5.56
2019-02-20T03:56:52.369Z,5.56
2019-02-20T03:57:25.166Z,5.56
2019-02-20T03:57:58.199Z,5.56
2019-02-20T03:58:33.201Z,5.56
2019-02-20T03:59:06.139Z,5.56
2019-02-20T03:59:39.052Z,5.56
2019-02-20T04:00:12.056Z,5.56
2019-02-20T04:00:45.255Z,5.56
2019-02-20T04:01:18.429Z,5.56
2019-02-20T04:01:53.152Z,5.56
2019-02-20T04:02:26.082Z,5.62
2019-02-20T04:02:59.123Z,5.62
2019-02-20T04:03:32.153Z,5.62
2019-02-20T04:04:05.064Z,5.62
2019-02-20T04:04:38.104Z,5.62
2019-02-20T04:05:11.606Z,5.62
2019-02-20T04:05:44.606Z,5.62
2019-02-20T04:06:17.714Z,5.62
2019-02-20T04:06:50.751Z,5.62
2019-02-20T04:07:23.763Z,5.62
2019-02-20T04:07:56.816Z,5.62
2019-02-20T04:08:29.918Z,5.62
2019-02-20T04:09:04.728Z,5.62
2019-02-20T04:09:38.924Z,5.62
2019-02-20T04:10:11.829Z,5.62
2019-02-20T04:10:45.366Z,5.62
2019-02-20T04:11:18.272Z,5.62
2019-02-20T04:11:51.178Z,5.62
2019-02-20T04:12:24.062Z,5.62
2019-02-20T04:12:58.095Z,5.62
2019-02-20T04:13:31.006Z,5.69
2019-02-20T04:14:04.028Z,5.69
2019-02-20T04:14:37.060Z,5.69
2019-02-20T04:15:10.197Z,5.69
2019-02-20T04:15:43.067Z,5.69
2019-02-20T04:16:17.646Z,5.69
2019-02-20T04:16:50.706Z,5.69
2019-02-20T04:17:23.577Z,5.69
2019-02-20T04:17:56.614Z,5.69
2019-02-20T04:18:29.553Z,5.69
2019-02-20T04:19:02.460Z,5.69
2019-02-20T04:19:35.379Z,5.75
2019-02-20T04:20:08.399Z,5.69
2019-02-20T04:20:41.431Z,5.69
2019-02-20T04:21:14.331Z,5.69
2019-02-20T04:21:47.218Z,5.75
2019-02-20T04:22:21.149Z,5.75
2019-02-20T04:22:53.999Z,5.75
2019-02-20T04:23:26.838Z,5.75
2019-02-20T04:24:02.847Z,5.75
2019-02-20T04:24:34.761Z,5.75
2019-02-20T04:25:07.821Z,5.75
2019-02-20T04:25:40.769Z,5.75
2019-02-20T04:26:13.727Z,5.75
2019-02-20T04:26:46.669Z,5.75
2019-02-20T04:27:19.492Z,5.75
2019-02-20T04:27:52.347Z,5.75
2019-02-20T04:28:25.425Z,5.75
2019-02-20T04:28:58.404Z,5.75
2019-02-20T04:29:31.547Z,5.75
2019-02-20T04:30:04.922Z,5.75
2019-02-20T04:30:38.093Z,5.75
2019-02-20T04:31:12.833Z,5.75
2019-02-20T04:31:46.448Z,5.75
2019-02-20T04:32:19.401Z,5.75
2019-02-20T04:32:52.392Z,5.75
2019-02-20T04:33:25.362Z,5.75
2019-02-20T04:33:58.342Z,5.75
2019-02-20T04:34:31.092Z,5.81
2019-02-20T04:35:04.497Z,5.81
2019-02-20T04:35:37.400Z,5.81
2019-02-20T04:36:10.459Z,5.81
2019-02-20T04:36:43.685Z,5.81
2019-02-20T04:37:16.948Z,5.81
2019-02-20T04:37:50.876Z,5.81
2019-02-20T04:38:23.910Z,5.81
2019-02-20T04:38:58.870Z,5.81
2019-02-20T04:39:31.899Z,5.81
2019-02-20T04:40:05.297Z,5.81
2019-02-20T04:40:38.247Z,5.81
2019-02-20T04:41:11.140Z,5.81
2019-02-20T04:41:44.021Z,5.81
2019-02-20T04:42:16.941Z,5.81
2019-02-20T04:42:49.906Z,5.81
2019-02-20T04:43:22.895Z,5.81
2019-02-20T04:43:56.233Z,5.81
2019-02-20T04:44:30.448Z,5.81
2019-02-20T04:45:04.716Z,5.75
2019-02-20T04:45:37.687Z,5.75
2019-02-20T04:46:10.679Z,5.81
2019-02-20T04:46:43.929Z,5.81
2019-02-20T04:47:16.891Z,5.81
2019-02-20T04:47:49.855Z,5.81
2019-02-20T04:48:22.809Z,5.81
2019-02-20T04:48:55.740Z,5.81
2019-02-20T04:49:28.725Z,5.75
2019-02-20T04:50:01.714Z,5.81
2019-02-20T04:50:34.553Z,5.81
2019-02-20T04:51:07.537Z,5.81
2019-02-20T04:51:40.574Z,5.81
2019-02-20T04:52:13.372Z,5.81
2019-02-20T04:52:46.401Z,5.81
2019-02-20T04:53:19.533Z,5.81
2019-02-20T04:53:53.505Z,5.75
2019-02-20T04:54:27.125Z,5.81
2019-02-20T04:54:59.989Z,5.81
2019-02-20T04:55:32.937Z,5.81
2019-02-20T04:56:07.558Z,5.81
2019-02-20T04:56:40.414Z,5.75
2019-02-20T04:57:13.431Z,5.75
2019-02-20T04:57:46.350Z,5.75
2019-02-20T04:58:21.053Z,5.75
2019-02-20T04:58:58.662Z,5.75
2019-02-20T04:59:31.605Z,5.75
2019-02-20T05:00:09.187Z,5.75
2019-02-20T05:00:42.160Z,5.75
2019-02-20T05:01:15.173Z,5.69
2019-02-20T05:01:48.278Z,5.69
2019-02-20T05:02:21.379Z,5.69
2019-02-20T05:02:54.189Z,5.69
2019-02-20T05:03:27.091Z,5.69
2019-02-20T05:04:00.069Z,5.69
2019-02-20T05:04:32.964Z,5.69
2019-02-20T05:05:06.116Z,5.69
2019-02-20T05:05:39.097Z,5.69
2019-02-20T05:06:12.005Z,5.69
2019-02-20T05:06:44.999Z,5.69
2019-02-20T05:07:17.821Z,5.62
2019-02-20T05:07:50.790Z,5.62
2019-02-20T05:08:23.809Z,5.62
2019-02-20T05:08:56.776Z,5.62
2019-02-20T05:09:29.749Z,5.62
2019-02-20T05:10:02.762Z,5.62
2019-02-20T05:10:35.708Z,5.56
2019-02-20T05:11:08.503Z,5.62
2019-02-20T05:11:41.471Z,5.56
2019-02-20T05:12:14.390Z,5.62
2019-02-20T05:12:47.407Z,5.56
2019-02-20T05:13:20.399Z,5.56
2019-02-20T05:13:53.320Z,5.56
2019-02-20T05:14:26.123Z,5.56
2019-02-20T05:14:59.205Z,5.56
2019-02-20T05:15:32.086Z,5.56
2019-02-20T05:16:05.091Z,5.50
2019-02-20T05:16:37.988Z,5.56
2019-02-20T05:17:10.943Z,5.50
2019-02-20T05:17:43.840Z,5.50
2019-02-20T05:18:16.665Z,5.50
2019-02-20T05:18:49.432Z,5.50
2019-02-20T05:19:22.305Z,5.50
2019-02-20T05:19:55.201Z,5.50
2019-02-20T05:20:28.157Z,5.50
2019-02-20T05:21:01.137Z,5.44
2019-02-20T05:21:34.175Z,5.44
2019-02-20T05:22:07.184Z,5.44
2019-02-20T05:22:40.003Z,5.44
2019-02-20T05:23:12.917Z,5.44
2019-02-20T05:23:45.944Z,5.44
2019-02-20T05:24:24.431Z,5.44
2019-02-20T05:24:53.808Z,5.37
2019-02-20T05:25:26.835Z,5.44
2019-02-20T05:25:59.891Z,5.44
2019-02-20T05:26:32.767Z,5.44
2019-02-20T05:27:05.573Z,5.44
2019-02-20T05:27:38.460Z,5.44
2019-02-20T05:28:11.422Z,5.44
2019-02-20T05:28:44.337Z,5.44
2019-02-20T05:29:17.226Z,5.44
2019-02-20T05:29:50.000Z,5.44
2019-02-20T05:30:23.013Z,5.44
2019-02-20T05:30:55.887Z,5.44
2019-02-20T05:31:28.841Z,5.50
2019-02-20T05:32:01.831Z,5.50
2019-02-20T05:32:34.690Z,5.50
2019-02-20T05:33:07.606Z,5.50
2019-02-20T05:33:40.433Z,5.56
2019-02-20T05:34:13.366Z,5.56
2019-02-20T05:34:46.265Z,5.56
2019-02-20T05:35:19.164Z,5.56
2019-02-20T05:35:52.216Z,5.62
2019-02-20T05:36:24.996Z,5.62
2019-02-20T05:36:57.851Z,5.62
2019-02-20T05:37:30.760Z,5.62
2019-02-20T05:38:03.786Z,5.62
2019-02-20T05:38:36.717Z,5.62
2019-02-20T05:39:09.597Z,5.62
2019-02-20T05:39:42.399Z,5.62
2019-02-20T05:40:15.300Z,5.62
2019-02-20T05:40:48.313Z,5.62
2019-02-20T05:41:21.351Z,5.62
2019-02-20T05:41:54.279Z,5.62
2019-02-20T05:42:27.195Z,5.62
2019-02-20T05:43:00.109Z,5.62
2019-02-20T05:43:34.568Z,5.62
2019-02-20T05:44:07.480Z,5.69
2019-02-20T05:44:40.290Z,5.69
2019-02-20T05:45:13.277Z,5.69
2019-02-20T05:45:46.205Z,5.69
2019-02-20T05:46:19.009Z,5.69
2019-02-20T05:46:51.970Z,5.69
2019-02-20T05:47:24.849Z,5.69
2019-02-20T05:47:57.984Z,5.69
2019-02-20T05:48:30.889Z,5.69
2019-02-20T05:49:04.125Z,5.69
2019-02-20T05:49:37.045Z,5.69
2019-02-20T05:50:10.196Z,5.69
2019-02-20T05:50:44.192Z,5.69
2019-02-20T05:51:17.138Z,5.69
2019-02-20T05:51:49.958Z,5.69
2019-02-20T05:52:22.788Z,5.69
2019-02-20T05:52:56.763Z,5.69
2019-02-20T05:53:29.546Z,5.69
2019-02-20T05:54:02.677Z,5.69
2019-02-20T05:54:35.484Z,5.69
2019-02-20T05:55:08.550Z,5.69
2019-02-20T05:55:41.691Z,5.69
2019-02-20T05:56:14.487Z,5.69
2019-02-20T05:56:47.430Z,5.69
2019-02-20T05:57:20.336Z,5.75
2019-02-20T05:57:53.220Z,5.75
2019-02-20T05:58:26.011Z,5.69
2019-02-20T05:58:58.931Z,5.75
2019-02-20T05:59:31.746Z,5.69
2019-02-20T06:00:05.956Z,5.69
2019-02-20T06:00:38.912Z,5.69
2019-02-20T06:01:11.892Z,5.69
2019-02-20T06:01:44.788Z,5.69
2019-02-20T06:02:17.587Z,5.69
2019-02-20T06:02:50.602Z,5.69
2019-02-20T06:03:23.500Z,5.69
2019-02-20T06:03:56.422Z,5.69
2019-02-20T06:04:29.404Z,5.69
2019-02-20T06:05:02.420Z,5.69
2019-02-20T06:05:35.326Z,5.69
2019-02-20T06:06:08.307Z,5.69
2019-02-20T06:06:43.019Z,5.69
2019-02-20T06:07:15.946Z,5.69
2019-02-20T06:07:48.831Z,5.69
2019-02-20T06:08:21.753Z,5.62
2019-02-20T06:08:54.688Z,5.69
2019-02-20T06:09:27.692Z,5.62
2019-02-20T06:10:00.459Z,5.62
2019-02-20T06:10:33.251Z,5.62
2019-02-20T06:11:14.471Z,5.62
2019-02-20T06:11:42.024Z,5.62
2019-02-20T06:12:14.928Z,5.62
2019-02-20T06:12:47.824Z,5.69
2019-02-20T06:13:20.640Z,5.62
2019-02-20T06:13:53.653Z,5.62
2019-02-20T06:14:26.632Z,5.69
2019-02-20T06:14:59.623Z,5.69
2019-02-20T06:15:32.525Z,5.62
2019-02-20T06:16:05.332Z,5.62
2019-02-20T06:16:38.174Z,5.62
2019-02-20T06:17:11.126Z,5.62
2019-02-20T06:17:44.018Z,5.62
2019-02-20T06:18:16.905Z,5.62
2019-02-20T06:18:49.692Z,5.62
2019-02-20T06:19:22.569Z,5.62
2019-02-20T06:19:56.875Z,5.62
2019-02-20T06:20:29.910Z,5.62
2019-02-20T06:21:02.786Z,5.62
2019-02-20T06:21:35.648Z,5.62
2019-02-20T06:22:08.602Z,5.62
2019-02-20T06:22:41.581Z,5.62
2019-02-20T06:23:14.372Z,5.62
2019-02-20T06:23:47.417Z,5.62
2019-02-20T06:24:20.326Z,5.62
2019-02-20T06:24:53.205Z,5.62
2019-02-20T06:25:26.398Z,5.62
2019-02-20T06:25:59.292Z,5.62
2019-02-20T06:26:32.130Z,5.62
2019-02-20T06:27:05.105Z,5.62
2019-02-20T06:27:40.670Z,5.62
2019-02-20T06:28:13.644Z,5.69
2019-02-20T06:28:46.650Z,5.62
2019-02-20T06:29:19.586Z,5.69
2019-02-20T06:29:52.404Z,5.69
2019-02-20T06:30:25.296Z,5.69
2019-02-20T06:30:58.198Z,5.69
2019-02-20T06:31:31.166Z,5.69
2019-02-20T06:32:04.070Z,5.69
2019-02-20T06:32:36.988Z,5.69
2019-02-20T06:33:09.786Z,5.69
2019-02-20T06:33:42.596Z,5.69
2019-02-20T06:34:15.489Z,5.69
2019-02-20T06:34:48.398Z,5.69
2019-02-20T06:35:21.318Z,5.69
2019-02-20T06:35:54.373Z,5.69
2019-02-20T06:36:27.288Z,5.69
2019-02-20T06:37:00.136Z,5.69
2019-02-20T06:37:33.145Z,5.75
2019-02-20T06:38:06.064Z,5.69
2019-02-20T06:38:38.997Z,5.75
2019-02-20T06:39:11.914Z,5.75
2019-02-20T06:39:44.935Z,5.75
2019-02-20T06:40:17.742Z,5.75
2019-02-20T06:40:50.716Z,5.75
2019-02-20T06:41:23.713Z,5.75
2019-02-20T06:41:56.804Z,5.69
2019-02-20T06:42:29.693Z,5.75
2019-02-20T06:43:02.641Z,5.75
2019-02-20T06:43:35.552Z,5.75
2019-02-20T06:44:08.490Z,5.75
2019-02-20T06:44:41.289Z,5.75
2019-02-20T06:45:14.468Z,5.75
2019-02-20T06:45:47.396Z,5.75
2019-02-20T06:46:20.274Z,5.75
2019-02-20T06:46:54.242Z,5.75
2019-02-20T06:47:27.180Z,5.75
2019-02-20T06:48:00.196Z,5.75
2019-02-20T06:48:33.120Z,5.75
2019-02-20T06:49:06.026Z,5.75
2019-02-20T06:49:38.823Z,5.75
2019-02-20T06:50:13.028Z,5.75
2019-02-20T06:50:46.065Z,5.75
2019-02-20T06:51:18.995Z,5.75
2019-02-20T06:51:51.919Z,5.81
2019-02-20T06:52:24.890Z,5.75
2019-02-20T06:52:57.790Z,5.75
2019-02-20T06:53:30.792Z,5.81
2019-02-20T06:54:03.812Z,5.81
2019-02-20T06:54:36.819Z,5.81
2019-02-20T06:55:09.957Z,5.75
2019-02-20T06:55:42.792Z,5.81
2019-02-20T06:56:15.803Z,5.75
2019-02-20T06:56:50.186Z,5.81
2019-02-20T06:57:23.223Z,5.75
2019-02-20T06:57:56.156Z,5.75
2019-02-20T06:58:29.079Z,5.81
2019-02-20T06:59:02.105Z,5.81
2019-02-20T06:59:35.018Z,5.81
2019-02-20T07:00:09.585Z,5.81
2019-02-20T07:00:42.634Z,5.81
2019-02-20T07:01:15.505Z,5.81
2019-02-20T07:01:48.421Z,5.81
2019-02-20T07:02:21.268Z,5.81
2019-02-20T07:02:54.194Z,5.81
2019-02-20T07:03:27.091Z,5.81
2019-02-20T07:04:00.311Z,5.81
2019-02-20T07:04:33.214Z,5.87
2019-02-20T07:06:29.029Z,5.81
2019-02-20T07:07:52.337Z,5.87
2019-02-20T07:09:56.474Z,5.87
2019-02-20T07:11:08.610Z,5.87
2019-02-20T07:12:25.325Z,5.94
2019-02-20T07:13:42.243Z,5.94
2019-02-20T07:15:17.232Z,6.00
2019-02-20T07:16:43.719Z,6.00
2019-02-20T07:17:46.951Z,6.00
2019-02-20T07:18:38.505Z,6.06
2019-02-20T07:19:56.818Z,6.06
2019-02-20T07:21:07.889Z,6.06
2019-02-20T07:22:38.925Z,6.06
2019-02-20T07:24:03.131Z,6.06
2019-02-20T07:25:30.773Z,6.06
2019-02-20T07:26:58.513Z,6.06
2019-02-20T07:28:34.941Z,6.00
2019-02-20T07:29:40.589Z,6.00
2019-02-20T07:30:13.427Z,6.00
2019-02-20T07:30:46.491Z,6.00
2019-02-20T07:31:19.465Z,6.00
2019-02-20T07:31:52.409Z,5.94
2019-02-20T07:32:25.487Z,5.94
2019-02-20T07:32:58.514Z,5.94
2019-02-20T07:33:31.384Z,5.94
2019-02-20T07:34:05.497Z,5.94
2019-02-20T07:34:38.490Z,5.94
2019-02-20T07:35:11.592Z,6.00
2019-02-20T07:35:44.676Z,6.00
2019-02-20T07:36:17.813Z,6.00
2019-02-20T07:36:50.615Z,6.00
2019-02-20T07:37:23.612Z,6.00
2019-02-20T07:37:56.581Z,6.06
2019-02-20T07:38:29.626Z,6.06
2019-02-20T07:39:03.939Z,6.06
2019-02-20T07:39:38.491Z,6.06